sensor_id;sensor_type;location;lat;lon;timestamp;pressure;altitude;pressure_sealevel;temperature
76713;BMP280;65640;43.154;25.658;2024-03-08T00:00:08;100948.34;;;6.73
76713;BMP280;65640;43.154;25.658;2024-03-08T00:02:40;100952.97;;;6.71
76713;BMP280;65640;43.154;25.658;2024-03-08T00:05:07;100944.50;;;6.64
76713;BMP280;65640;43.154;25.658;2024-03-08T00:07:36;100946.88;;;6.65
76713;BMP280;65640;43.154;25.658;2024-03-08T00:10:06;100944.28;;;6.77
76713;BMP280;65640;43.154;25.658;2024-03-08T00:12:39;100942.44;;;6.77
76713;BMP280;65640;43.154;25.658;2024-03-08T00:15:08;100947.66;;;6.77
76713;BMP280;65640;43.154;25.658;2024-03-08T00:17:34;100947.91;;;6.64
76713;BMP280;65640;43.154;25.658;2024-03-08T00:20:00;100936.03;;;6.68
76713;BMP280;65640;43.154;25.658;2024-03-08T00:22:25;100941.56;;;6.72
76713;BMP280;65640;43.154;25.658;2024-03-08T00:24:50;100948.78;;;6.70
76713;BMP280;65640;43.154;25.658;2024-03-08T00:27:16;100938.72;;;6.73
76713;BMP280;65640;43.154;25.658;2024-03-08T00:29:41;100927.97;;;6.70
76713;BMP280;65640;43.154;25.658;2024-03-08T00:32:07;100930.25;;;6.66
76713;BMP280;65640;43.154;25.658;2024-03-08T00:34:35;100934.19;;;6.57
76713;BMP280;65640;43.154;25.658;2024-03-08T00:37:02;100929.00;;;6.57
76713;BMP280;65640;43.154;25.658;2024-03-08T00:39:27;100923.03;;;6.57
76713;BMP280;65640;43.154;25.658;2024-03-08T00:41:53;100938.63;;;6.45
76713;BMP280;65640;43.154;25.658;2024-03-08T00:44:18;100931.97;;;6.49
76713;BMP280;65640;43.154;25.658;2024-03-08T00:46:43;100933.19;;;6.46
76713;BMP280;65640;43.154;25.658;2024-03-08T00:49:09;100930.50;;;6.53
76713;BMP280;65640;43.154;25.658;2024-03-08T00:51:34;100928.69;;;6.54
76713;BMP280;65640;43.154;25.658;2024-03-08T00:54:00;100930.56;;;6.58
76713;BMP280;65640;43.154;25.658;2024-03-08T00:56:25;100931.72;;;6.62
76713;BMP280;65640;43.154;25.658;2024-03-08T00:58:50;100930.94;;;6.62
76713;BMP280;65640;43.154;25.658;2024-03-08T01:01:18;100924.50;;;6.64
76713;BMP280;65640;43.154;25.658;2024-03-08T01:03:44;100936.91;;;6.62
76713;BMP280;65640;43.154;25.658;2024-03-08T01:06:09;100937.28;;;6.66
76713;BMP280;65640;43.154;25.658;2024-03-08T01:08:36;100935.47;;;6.66
76713;BMP280;65640;43.154;25.658;2024-03-08T01:11:04;100937.84;;;6.68
76713;BMP280;65640;43.154;25.658;2024-03-08T01:13:30;100939.88;;;6.66
76713;BMP280;65640;43.154;25.658;2024-03-08T01:15:55;100937.03;;;6.56
76713;BMP280;65640;43.154;25.658;2024-03-08T01:18:21;100933.31;;;6.63
76713;BMP280;65640;43.154;25.658;2024-03-08T01:20:46;100936.91;;;6.62
76713;BMP280;65640;43.154;25.658;2024-03-08T01:23:12;100936.13;;;6.62
76713;BMP280;65640;43.154;25.658;2024-03-08T01:25:38;100934.19;;;6.57
76713;BMP280;65640;43.154;25.658;2024-03-08T01:28:04;100937.38;;;6.59
76713;BMP280;65640;43.154;25.658;2024-03-08T01:30:29;100934.19;;;6.57
76713;BMP280;65640;43.154;25.658;2024-03-08T01:32:58;100934.56;;;6.49
76713;BMP280;65640;43.154;25.658;2024-03-08T01:35:23;100936.25;;;6.55
76713;BMP280;65640;43.154;25.658;2024-03-08T01:37:48;100942.38;;;6.49
76713;BMP280;65640;43.154;25.658;2024-03-08T01:40:15;100946.34;;;6.51
76713;BMP280;65640;43.154;25.658;2024-03-08T01:42:42;100945.97;;;6.48
76713;BMP280;65640;43.154;25.658;2024-03-08T01:45:07;100948.00;;;6.46
76713;BMP280;65640;43.154;25.658;2024-03-08T01:47:34;100942.59;;;6.47
76713;BMP280;65640;43.154;25.658;2024-03-08T01:49:59;100943.59;;;6.46
76713;BMP280;65640;43.154;25.658;2024-03-08T01:52:34;100947.47;;;6.44
76713;BMP280;65640;43.154;25.658;2024-03-08T01:55:01;100949.59;;;6.47
76713;BMP280;65640;43.154;25.658;2024-03-08T01:57:31;100944.88;;;6.44
76713;BMP280;65640;43.154;25.658;2024-03-08T01:59:57;100946.31;;;6.40
76713;BMP280;65640;43.154;25.658;2024-03-08T02:02:22;100951.38;;;6.35
76713;BMP280;65640;43.154;25.658;2024-03-08T02:04:48;100947.34;;;6.39
76713;BMP280;65640;43.154;25.658;2024-03-08T02:07:14;100945.75;;;6.38
76713;BMP280;65640;43.154;25.658;2024-03-08T02:09:39;100947.19;;;6.34
76713;BMP280;65640;43.154;25.658;2024-03-08T02:12:05;100956.00;;;6.33
76713;BMP280;65640;43.154;25.658;2024-03-08T02:14:31;100955.56;;;6.36
76713;BMP280;65640;43.154;25.658;2024-03-08T02:17:01;100951.31;;;6.30
76713;BMP280;65640;43.154;25.658;2024-03-08T02:19:26;100944.59;;;6.34
76713;BMP280;65640;43.154;25.658;2024-03-08T02:21:51;100945.59;;;6.33
76713;BMP280;65640;43.154;25.658;2024-03-08T02:24:17;100954.56;;;6.37
76713;BMP280;65640;43.154;25.658;2024-03-08T02:26:42;100944.72;;;6.39
76713;BMP280;65640;43.154;25.658;2024-03-08T02:29:09;100950.16;;;6.37
76713;BMP280;65640;43.154;25.658;2024-03-08T02:31:34;100945.97;;;6.25
76713;BMP280;65640;43.154;25.658;2024-03-08T02:33:59;100954.78;;;6.24
76713;BMP280;65640;43.154;25.658;2024-03-08T02:36:25;100953.06;;;6.18
76713;BMP280;65640;43.154;25.658;2024-03-08T02:38:50;100951.03;;;6.20
76713;BMP280;65640;43.154;25.658;2024-03-08T02:41:15;100952.84;;;6.19
76713;BMP280;65640;43.154;25.658;2024-03-08T02:43:41;100947.53;;;6.14
76713;BMP280;65640;43.154;25.658;2024-03-08T02:46:06;100952.50;;;6.16
76713;BMP280;65640;43.154;25.658;2024-03-08T02:48:32;100947.75;;;6.12
76713;BMP280;65640;43.154;25.658;2024-03-08T02:50:57;100943.00;;;6.09
76713;BMP280;65640;43.154;25.658;2024-03-08T02:53:22;100946.47;;;6.03
76713;BMP280;65640;43.154;25.658;2024-03-08T02:55:49;100946.72;;;6.02
76713;BMP280;65640;43.154;25.658;2024-03-08T02:58:14;100955.06;;;6.04
76713;BMP280;65640;43.154;25.658;2024-03-08T03:00:40;100956.88;;;6.03
76713;BMP280;65640;43.154;25.658;2024-03-08T03:03:06;100959.47;;;6.03
76713;BMP280;65640;43.154;25.658;2024-03-08T03:05:32;100961.53;;;6.01
76713;BMP280;65640;43.154;25.658;2024-03-08T03:07:59;100952.56;;;5.97
76713;BMP280;65640;43.154;25.658;2024-03-08T03:10:25;100953.59;;;5.96
76713;BMP280;65640;43.154;25.658;2024-03-08T03:12:51;100944.06;;;5.90
76713;BMP280;65640;43.154;25.658;2024-03-08T03:15:17;100947.13;;;5.87
76713;BMP280;65640;43.154;25.658;2024-03-08T03:17:50;100947.25;;;5.92
76713;BMP280;65640;43.154;25.658;2024-03-08T03:20:18;100945.66;;;5.91
76713;BMP280;65640;43.154;25.658;2024-03-08T03:22:58;100941.19;;;5.98
76713;BMP280;65640;43.154;25.658;2024-03-08T03:25:26;100955.41;;;5.96
76713;BMP280;65640;43.154;25.658;2024-03-08T03:27:54;100957.19;;;5.95
76713;BMP280;65640;43.154;25.658;2024-03-08T03:30:23;100956.19;;;5.96
76713;BMP280;65640;43.154;25.658;2024-03-08T03:32:51;100959.38;;;5.98
76713;BMP280;65640;43.154;25.658;2024-03-08T03:35:18;100957.63;;;5.92
76713;BMP280;65640;43.154;25.658;2024-03-08T03:37:43;100957.19;;;5.95
76713;BMP280;65640;43.154;25.658;2024-03-08T03:40:28;100958.34;;;5.99
76713;BMP280;65640;43.154;25.658;2024-03-08T03:42:54;100961.97;;;5.98
76713;BMP280;65640;43.154;25.658;2024-03-08T03:45:19;100955.19;;;5.97
76713;BMP280;65640;43.154;25.658;2024-03-08T03:47:45;100954.03;;;5.93
76713;BMP280;65640;43.154;25.658;2024-03-08T03:50:11;100960.38;;;5.97
76713;BMP280;65640;43.154;25.658;2024-03-08T03:52:36;100958.34;;;5.99
76713;BMP280;65640;43.154;25.658;2024-03-08T03:55:02;100961.81;;;5.93
76713;BMP280;65640;43.154;25.658;2024-03-08T03:57:29;100957.63;;;5.92
76713;BMP280;65640;43.154;25.658;2024-03-08T03:59:55;100955.25;;;5.91
76713;BMP280;65640;43.154;25.658;2024-03-08T04:02:20;100959.66;;;5.90
76713;BMP280;65640;43.154;25.658;2024-03-08T04:04:47;100962.84;;;5.92
76713;BMP280;65640;43.154;25.658;2024-03-08T04:07:13;100961.94;;;5.87
76713;BMP280;65640;43.154;25.658;2024-03-08T04:09:38;100965.31;;;5.87
76713;BMP280;65640;43.154;25.658;2024-03-08T04:12:04;100963.25;;;5.89
76713;BMP280;65640;43.154;25.658;2024-03-08T04:14:30;100968.16;;;5.86
76713;BMP280;65640;43.154;25.658;2024-03-08T04:16:55;100973.56;;;5.84
76713;BMP280;65640;43.154;25.658;2024-03-08T04:19:20;100972.41;;;5.80
76713;BMP280;65640;43.154;25.658;2024-03-08T04:21:46;100971.97;;;5.83
76713;BMP280;65640;43.154;25.658;2024-03-08T04:24:12;100976.75;;;5.86
76713;BMP280;65640;43.154;25.658;2024-03-08T04:26:37;100983.38;;;5.82
76713;BMP280;65640;43.154;25.658;2024-03-08T04:29:03;100978.19;;;5.82
76713;BMP280;65640;43.154;25.658;2024-03-08T04:31:28;100977.19;;;5.83
76713;BMP280;65640;43.154;25.658;2024-03-08T04:33:56;100983.66;;;5.74
76713;BMP280;65640;43.154;25.658;2024-03-08T04:36:21;100991.59;;;5.79
76713;BMP280;65640;43.154;25.658;2024-03-08T04:38:47;100987.78;;;5.82
76713;BMP280;65640;43.154;25.658;2024-03-08T04:41:12;100984.69;;;5.73
76713;BMP280;65640;43.154;25.658;2024-03-08T04:43:38;100981.13;;;5.56
76713;BMP280;65640;43.154;25.658;2024-03-08T04:46:04;100988.28;;;5.24
76713;BMP280;65640;43.154;25.658;2024-03-08T04:48:30;100993.66;;;5.04
76713;BMP280;65640;43.154;25.658;2024-03-08T04:50:56;100996.09;;;4.99
76713;BMP280;65640;43.154;25.658;2024-03-08T04:53:21;100996.16;;;4.92
76713;BMP280;65640;43.154;25.658;2024-03-08T04:55:47;101001.59;;;4.91
76713;BMP280;65640;43.154;25.658;2024-03-08T04:58:12;101003.81;;;4.87
76713;BMP280;65640;43.154;25.658;2024-03-08T05:00:38;101001.19;;;4.87
76713;BMP280;65640;43.154;25.658;2024-03-08T05:03:03;101005.59;;;4.87
76713;BMP280;65640;43.154;25.658;2024-03-08T05:05:30;101002.00;;;4.88
76713;BMP280;65640;43.154;25.658;2024-03-08T05:07:56;101009.91;;;4.93
76713;BMP280;65640;43.154;25.658;2024-03-08T05:10:21;101012.88;;;4.96
76713;BMP280;65640;43.154;25.658;2024-03-08T05:12:46;101019.63;;;4.97
76713;BMP280;65640;43.154;25.658;2024-03-08T05:15:12;101022.63;;;5.01
76713;BMP280;65640;43.154;25.658;2024-03-08T05:17:37;101020.59;;;5.03
76713;BMP280;65640;43.154;25.658;2024-03-08T05:20:05;101022.06;;;5.17
76713;BMP280;65640;43.154;25.658;2024-03-08T05:22:33;101030.84;;;5.41
76713;BMP280;65640;43.154;25.658;2024-03-08T05:24:59;101031.09;;;5.51
76713;BMP280;65640;43.154;25.658;2024-03-08T05:27:24;101035.66;;;5.56
76713;BMP280;65640;43.154;25.658;2024-03-08T05:29:49;101036.66;;;5.36
76713;BMP280;65640;43.154;25.658;2024-03-08T05:32:15;101041.47;;;5.15
76713;BMP280;65640;43.154;25.658;2024-03-08T05:34:40;101045.47;;;5.11
76713;BMP280;65640;43.154;25.658;2024-03-08T05:37:05;101044.53;;;5.05
76713;BMP280;65640;43.154;25.658;2024-03-08T05:39:32;101048.34;;;5.03
76713;BMP280;65640;43.154;25.658;2024-03-08T05:41:58;101050.41;;;5.19
76713;BMP280;65640;43.154;25.658;2024-03-08T05:44:23;101045.81;;;5.39
76713;BMP280;65640;43.154;25.658;2024-03-08T05:46:48;101050.22;;;5.57
76713;BMP280;65640;43.154;25.658;2024-03-08T05:49:14;101054.53;;;5.63
76713;BMP280;65640;43.154;25.658;2024-03-08T05:51:40;101054.38;;;5.58
76713;BMP280;65640;43.154;25.658;2024-03-08T05:54:09;101055.69;;;5.49
76713;BMP280;65640;43.154;25.658;2024-03-08T05:56:38;101058.66;;;5.34
76713;BMP280;65640;43.154;25.658;2024-03-08T05:59:06;101069.66;;;5.48
76713;BMP280;65640;43.154;25.658;2024-03-08T06:01:31;101066.72;;;5.62
76713;BMP280;65640;43.154;25.658;2024-03-08T06:03:57;101062.16;;;5.76
76713;BMP280;65640;43.154;25.658;2024-03-08T06:06:25;101071.13;;;5.80
76713;BMP280;65640;43.154;25.658;2024-03-08T06:08:51;101072.84;;;5.68
76713;BMP280;65640;43.154;25.658;2024-03-08T06:11:17;101073.28;;;5.47
76713;BMP280;65640;43.154;25.658;2024-03-08T06:13:43;101081.59;;;5.55
76713;BMP280;65640;43.154;25.658;2024-03-08T06:16:09;101080.81;;;5.73
76713;BMP280;65640;43.154;25.658;2024-03-08T06:18:34;101076.09;;;5.82
76713;BMP280;65640;43.154;25.658;2024-03-08T06:21:04;101081.97;;;5.89
76713;BMP280;65640;43.154;25.658;2024-03-08T06:23:35;101088.59;;;5.73
76713;BMP280;65640;43.154;25.658;2024-03-08T06:26:06;101079.22;;;5.54
76713;BMP280;65640;43.154;25.658;2024-03-08T06:28:32;101088.13;;;5.58
76713;BMP280;65640;43.154;25.658;2024-03-08T06:30:58;101083.25;;;5.86
76713;BMP280;65640;43.154;25.658;2024-03-08T06:33:24;101085.09;;;5.97
76713;BMP280;65640;43.154;25.658;2024-03-08T06:35:51;101093.06;;;6.02
76713;BMP280;65640;43.154;25.658;2024-03-08T06:38:17;101094.91;;;5.95
76713;BMP280;65640;43.154;25.658;2024-03-08T06:40:42;101092.91;;;5.79
76713;BMP280;65640;43.154;25.658;2024-03-08T06:43:08;101091.06;;;5.86
76713;BMP280;65640;43.154;25.658;2024-03-08T06:45:33;101091.31;;;5.96
76713;BMP280;65640;43.154;25.658;2024-03-08T06:47:58;101091.78;;;6.05
76713;BMP280;65640;43.154;25.658;2024-03-08T06:50:24;101094.59;;;6.03
76713;BMP280;65640;43.154;25.658;2024-03-08T06:52:49;101101.66;;;5.85
76713;BMP280;65640;43.154;25.658;2024-03-08T06:55:19;101100.00;;;5.72
76713;BMP280;65640;43.154;25.658;2024-03-08T06:57:45;101105.25;;;5.84
76713;BMP280;65640;43.154;25.658;2024-03-08T07:00:11;101104.22;;;6.03
76713;BMP280;65640;43.154;25.658;2024-03-08T07:02:44;101115.22;;;6.17
76713;BMP280;65640;43.154;25.658;2024-03-08T07:05:11;101110.03;;;6.17
76713;BMP280;65640;43.154;25.658;2024-03-08T07:07:37;101113.28;;;6.12
76713;BMP280;65640;43.154;25.658;2024-03-08T07:10:03;101119.16;;;5.89
76713;BMP280;65640;43.154;25.658;2024-03-08T07:12:29;101120.31;;;5.93
76713;BMP280;65640;43.154;25.658;2024-03-08T07:14:55;101121.97;;;6.06
76713;BMP280;65640;43.154;25.658;2024-03-08T07:17:20;101120.41;;;6.17
76713;BMP280;65640;43.154;25.658;2024-03-08T07:19:46;101122.38;;;6.21
76713;BMP280;65640;43.154;25.658;2024-03-08T07:22:11;101126.16;;;6.07
76713;BMP280;65640;43.154;25.658;2024-03-08T07:24:37;101128.75;;;5.89
76713;BMP280;65640;43.154;25.658;2024-03-08T07:27:04;101129.91;;;5.93
76713;BMP280;65640;43.154;25.658;2024-03-08T07:29:30;101138.06;;;6.14
76713;BMP280;65640;43.154;25.658;2024-03-08T07:31:56;101127.53;;;6.09
76713;BMP280;65640;43.154;25.658;2024-03-08T07:34:37;101140.75;;;6.08
76713;BMP280;65640;43.154;25.658;2024-03-08T07:37:02;101136.50;;;5.95
76713;BMP280;65640;43.154;25.658;2024-03-08T07:39:29;101131.28;;;5.77
76713;BMP280;65640;43.154;25.658;2024-03-08T07:41:54;101140.94;;;5.88
76713;BMP280;65640;43.154;25.658;2024-03-08T07:44:20;101137.34;;;6.07
76713;BMP280;65640;43.154;25.658;2024-03-08T07:46:46;101136.91;;;6.10
76713;BMP280;65640;43.154;25.658;2024-03-08T07:49:11;101146.88;;;6.13
76713;BMP280;65640;43.154;25.658;2024-03-08T07:51:37;101141.63;;;6.02
76713;BMP280;65640;43.154;25.658;2024-03-08T07:54:03;101137.88;;;5.98
76713;BMP280;65640;43.154;25.658;2024-03-08T07:56:30;101139.66;;;5.97
76713;BMP280;65640;43.154;25.658;2024-03-08T07:58:55;101141.38;;;6.22
76713;BMP280;65640;43.154;25.658;2024-03-08T08:01:21;101144.78;;;6.34
76713;BMP280;65640;43.154;25.658;2024-03-08T08:03:46;101147.84;;;6.31
76713;BMP280;65640;43.154;25.658;2024-03-08T08:06:14;101144.34;;;6.25
76713;BMP280;65640;43.154;25.658;2024-03-08T08:08:44;101145.56;;;6.04
76713;BMP280;65640;43.154;25.658;2024-03-08T08:11:09;101143.19;;;6.03
76713;BMP280;65640;43.154;25.658;2024-03-08T08:13:36;101147.66;;;6.14
76713;BMP280;65640;43.154;25.658;2024-03-08T08:16:02;101149.16;;;6.22
76713;BMP280;65640;43.154;25.658;2024-03-08T08:18:27;101144.06;;;6.15
76713;BMP280;65640;43.154;25.658;2024-03-08T08:20:55;101145.03;;;6.02
76713;BMP280;65640;43.154;25.658;2024-03-08T08:23:20;101150.44;;;6.01
76713;BMP280;65640;43.154;25.658;2024-03-08T08:25:46;101155.47;;;6.14
76713;BMP280;65640;43.154;25.658;2024-03-08T08:28:18;101147.28;;;6.10
76713;BMP280;65640;43.154;25.658;2024-03-08T08:30:46;101153.28;;;6.11
76713;BMP280;65640;43.154;25.658;2024-03-08T08:33:12;101151.84;;;6.15
76713;BMP280;65640;43.154;25.658;2024-03-08T08:35:38;101153.66;;;6.14
76713;BMP280;65640;43.154;25.658;2024-03-08T08:38:04;101156.13;;;6.09
76713;BMP280;65640;43.154;25.658;2024-03-08T08:40:30;101160.44;;;6.16
76713;BMP280;65640;43.154;25.658;2024-03-08T08:42:58;101162.53;;;6.25
76713;BMP280;65640;43.154;25.658;2024-03-08T08:45:23;101158.13;;;6.26
76713;BMP280;65640;43.154;25.658;2024-03-08T08:47:49;101159.56;;;6.22
76713;BMP280;65640;43.154;25.658;2024-03-08T08:50:15;101169.38;;;6.20
76713;BMP280;65640;43.154;25.658;2024-03-08T08:52:41;101168.75;;;6.24
76713;BMP280;65640;43.154;25.658;2024-03-08T08:55:10;101174.78;;;6.18
76713;BMP280;65640;43.154;25.658;2024-03-08T08:57:42;101167.94;;;6.24
76713;BMP280;65640;43.154;25.658;2024-03-08T09:00:09;101168.38;;;6.21
76713;BMP280;65640;43.154;25.658;2024-03-08T09:02:39;101168.66;;;6.12
76713;BMP280;65640;43.154;25.658;2024-03-08T09:05:06;101169.25;;;6.14
76713;BMP280;65640;43.154;25.658;2024-03-08T09:07:33;101165.66;;;6.16
76713;BMP280;65640;43.154;25.658;2024-03-08T09:09:59;101171.47;;;6.11
76713;BMP280;65640;43.154;25.658;2024-03-08T09:12:25;101170.44;;;6.00
76713;BMP280;65640;43.154;25.658;2024-03-08T09:14:50;101173.88;;;5.94
76713;BMP280;65640;43.154;25.658;2024-03-08T09:17:16;101168.84;;;5.99
76713;BMP280;65640;43.154;25.658;2024-03-08T09:19:46;101175.34;;;6.08
76713;BMP280;65640;43.154;25.658;2024-03-08T09:22:12;101173.28;;;6.10
76713;BMP280;65640;43.154;25.658;2024-03-08T09:24:38;101180.75;;;6.07
76713;BMP280;65640;43.154;25.658;2024-03-08T09:27:03;101177.78;;;6.03
76713;BMP280;65640;43.154;25.658;2024-03-08T09:29:29;101177.44;;;6.00
76713;BMP280;65640;43.154;25.658;2024-03-08T09:31:54;101182.03;;;5.98
76713;BMP280;65640;43.154;25.658;2024-03-08T09:34:21;101179.22;;;5.99
76713;BMP280;65640;43.154;25.658;2024-03-08T09:36:46;101178.81;;;6.02
76713;BMP280;65640;43.154;25.658;2024-03-08T09:39:11;101187.50;;;5.90
76713;BMP280;65640;43.154;25.658;2024-03-08T09:41:42;101190.41;;;5.82
76713;BMP280;65640;43.154;25.658;2024-03-08T09:44:09;101194.06;;;5.74
76713;BMP280;65640;43.154;25.658;2024-03-08T09:46:34;101188.88;;;5.74
76713;BMP280;65640;43.154;25.658;2024-03-08T09:49:00;101190.91;;;5.72
76713;BMP280;65640;43.154;25.658;2024-03-08T09:51:29;101196.66;;;5.74
76713;BMP280;65640;43.154;25.658;2024-03-08T09:53:56;101198.84;;;5.77
76713;BMP280;65640;43.154;25.658;2024-03-08T09:56:22;101198.25;;;5.75
76713;BMP280;65640;43.154;25.658;2024-03-08T09:58:49;101198.53;;;5.67
76713;BMP280;65640;43.154;25.658;2024-03-08T10:01:34;101204.59;;;5.61
76713;BMP280;65640;43.154;25.658;2024-03-08T10:03:59;101207.38;;;5.59
76713;BMP280;65640;43.154;25.658;2024-03-08T10:06:25;101210.78;;;5.60
76713;BMP280;65640;43.154;25.658;2024-03-08T10:08:50;101205.78;;;5.58
76713;BMP280;65640;43.154;25.658;2024-03-08T10:11:17;101206.19;;;5.62
76713;BMP280;65640;43.154;25.658;2024-03-08T10:13:44;101204.59;;;5.61
76713;BMP280;65640;43.154;25.658;2024-03-08T10:16:11;101209.72;;;5.67
76713;BMP280;65640;43.154;25.658;2024-03-08T10:18:37;101204.97;;;5.64
76713;BMP280;65640;43.154;25.658;2024-03-08T10:21:04;101203.78;;;5.60
76713;BMP280;65640;43.154;25.658;2024-03-08T10:23:31;101208.84;;;5.55
76713;BMP280;65640;43.154;25.658;2024-03-08T10:25:56;101209.63;;;5.56
76713;BMP280;65640;43.154;25.658;2024-03-08T10:28:23;101211.06;;;5.52
76713;BMP280;65640;43.154;25.658;2024-03-08T10:30:50;101214.25;;;5.54
76713;BMP280;65640;43.154;25.658;2024-03-08T10:33:15;101211.22;;;5.57
76713;BMP280;65640;43.154;25.658;2024-03-08T10:35:40;101209.03;;;5.54
76713;BMP280;65640;43.154;25.658;2024-03-08T10:38:08;101207.25;;;5.54
76713;BMP280;65640;43.154;25.658;2024-03-08T10:40:35;101204.38;;;5.62
76713;BMP280;65640;43.154;25.658;2024-03-08T10:43:03;101207.78;;;5.63
76713;BMP280;65640;43.154;25.658;2024-03-08T10:45:39;101201.13;;;5.67
76713;BMP280;65640;43.154;25.658;2024-03-08T10:48:28;101203.03;;;5.78
76713;BMP280;65640;43.154;25.658;2024-03-08T10:51:04;101200.28;;;5.73
76713;BMP280;65640;43.154;25.658;2024-03-08T10:53:30;101199.63;;;5.78
76713;BMP280;65640;43.154;25.658;2024-03-08T10:55:59;101201.59;;;5.82
76713;BMP280;65640;43.154;25.658;2024-03-08T10:58:26;101197.69;;;5.73
76713;BMP280;65640;43.154;25.658;2024-03-08T11:00:55;101198.59;;;5.85
76713;BMP280;65640;43.154;25.658;2024-03-08T11:03:48;101201.19;;;5.85
76713;BMP280;65640;43.154;25.658;2024-03-08T11:06:44;101201.81;;;5.81
76713;BMP280;65640;43.154;25.658;2024-03-08T11:09:27;101200.50;;;5.71
76713;BMP280;65640;43.154;25.658;2024-03-08T11:12:19;101204.09;;;5.70
76713;BMP280;65640;43.154;25.658;2024-03-08T11:14:46;101203.44;;;5.75
76713;BMP280;65640;43.154;25.658;2024-03-08T11:17:15;101204.91;;;5.71
76713;BMP280;65640;43.154;25.658;2024-03-08T11:19:47;101200.84;;;5.75
76713;BMP280;65640;43.154;25.658;2024-03-08T11:22:36;101203.09;;;5.71
76713;BMP280;65640;43.154;25.658;2024-03-08T11:25:04;101199.63;;;5.78
76713;BMP280;65640;43.154;25.658;2024-03-08T11:27:35;101193.00;;;5.82
76713;BMP280;65640;43.154;25.658;2024-03-08T11:30:05;101193.22;;;5.80
76713;BMP280;65640;43.154;25.658;2024-03-08T11:32:43;101196.88;;;5.91
76713;BMP280;65640;43.154;25.658;2024-03-08T11:35:20;101191.47;;;5.92
76713;BMP280;65640;43.154;25.658;2024-03-08T11:37:46;101185.47;;;5.92
76713;BMP280;65640;43.154;25.658;2024-03-08T11:40:13;101191.47;;;5.92
76713;BMP280;65640;43.154;25.658;2024-03-08T11:42:48;101185.56;;;6.03
76713;BMP280;65640;43.154;25.658;2024-03-08T11:45:17;101182.84;;;5.98
76713;BMP280;65640;43.154;25.658;2024-03-08T11:47:43;101184.56;;;6.04
76713;BMP280;65640;43.154;25.658;2024-03-08T11:50:12;101183.41;;;6.00
76713;BMP280;65640;43.154;25.658;2024-03-08T11:52:38;101187.75;;;6.06
76713;BMP280;65640;43.154;25.658;2024-03-08T11:55:03;101190.41;;;6.00
76713;BMP280;65640;43.154;25.658;2024-03-08T11:57:30;101186.44;;;5.97
76713;BMP280;65640;43.154;25.658;2024-03-08T11:59:57;101186.59;;;6.02
76713;BMP280;65640;43.154;25.658;2024-03-08T12:02:24;101183.75;;;6.04
76713;BMP280;65640;43.154;25.658;2024-03-08T12:04:59;101187.53;;;6.08
76713;BMP280;65640;43.154;25.658;2024-03-08T12:07:25;101187.88;;;6.11
76713;BMP280;65640;43.154;25.658;2024-03-08T12:10:18;101192.19;;;6.18
76713;BMP280;65640;43.154;25.658;2024-03-08T12:12:49;101188.38;;;6.20
76713;BMP280;65640;43.154;25.658;2024-03-08T12:15:16;101187.78;;;6.18
76713;BMP280;65640;43.154;25.658;2024-03-08T12:17:43;101182.66;;;6.11
76713;BMP280;65640;43.154;25.658;2024-03-08T12:20:20;101184.41;;;6.18
76713;BMP280;65640;43.154;25.658;2024-03-08T12:22:50;101184.97;;;6.20
76713;BMP280;65640;43.154;25.658;2024-03-08T12:25:19;101176.31;;;6.26
76713;BMP280;65640;43.154;25.658;2024-03-08T12:27:45;101179.06;;;6.31
76713;BMP280;65640;43.154;25.658;2024-03-08T12:30:18;101178.03;;;6.32
76713;BMP280;65640;43.154;25.658;2024-03-08T12:32:56;101183.78;;;6.34
76713;BMP280;65640;43.154;25.658;2024-03-08T12:35:23;101185.84;;;6.32
76713;BMP280;65640;43.154;25.658;2024-03-08T12:37:54;101179.06;;;6.31
76713;BMP280;65640;43.154;25.658;2024-03-08T12:40:30;101184.81;;;6.33
76713;BMP280;65640;43.154;25.658;2024-03-08T12:42:57;101178.72;;;6.27
76713;BMP280;65640;43.154;25.658;2024-03-08T12:45:23;101181.53;;;6.26
76713;BMP280;65640;43.154;25.658;2024-03-08T12:47:58;101184.00;;;6.32
76713;BMP280;65640;43.154;25.658;2024-03-08T12:50:25;101176.56;;;6.36
76713;BMP280;65640;43.154;25.658;2024-03-08T12:52:50;101181.66;;;6.31
76713;BMP280;65640;43.154;25.658;2024-03-08T12:55:17;101171.66;;;6.46
76713;BMP280;65640;43.154;25.658;2024-03-08T12:57:43;101180.94;;;6.42
76713;BMP280;65640;43.154;25.658;2024-03-08T13:00:09;101181.50;;;6.44
76713;BMP280;65640;43.154;25.658;2024-03-08T13:02:39;101182.63;;;6.48
76713;BMP280;65640;43.154;25.658;2024-03-08T13:05:05;101183.78;;;6.34
76713;BMP280;65640;43.154;25.658;2024-03-08T13:07:31;101181.53;;;6.26
76713;BMP280;65640;43.154;25.658;2024-03-08T13:09:57;101189.59;;;6.18
76713;BMP280;65640;43.154;25.658;2024-03-08T13:12:25;101184.56;;;6.04
76713;BMP280;65640;43.154;25.658;2024-03-08T13:14:50;101182.53;;;6.06
76713;BMP280;65640;43.154;25.658;2024-03-08T13:17:16;101187.75;;;6.06
76713;BMP280;65640;43.154;25.658;2024-03-08T13:19:43;101192.84;;;6.13
76713;BMP280;65640;43.154;25.658;2024-03-08T13:22:09;101188.47;;;6.13
76713;BMP280;65640;43.154;25.658;2024-03-08T13:24:44;101189.47;;;6.12
76713;BMP280;65640;43.154;25.658;2024-03-08T13:27:10;101189.97;;;6.03
76713;BMP280;65640;43.154;25.658;2024-03-08T13:29:46;101186.94;;;6.06
76713;BMP280;65640;43.154;25.658;2024-03-08T13:32:12;101189.53;;;6.06
76713;BMP280;65640;43.154;25.658;2024-03-08T13:34:41;101194.81;;;5.99
76713;BMP280;65640;43.154;25.658;2024-03-08T13:37:06;101194.25;;;5.97
76713;BMP280;65640;43.154;25.658;2024-03-08T13:39:32;101185.44;;;5.98
76713;BMP280;65640;43.154;25.658;2024-03-08T13:42:06;101183.84;;;5.97
76713;BMP280;65640;43.154;25.658;2024-03-08T13:44:35;101189.28;;;5.89
76713;BMP280;65640;43.154;25.658;2024-03-08T13:47:01;101194.00;;;5.81
76713;BMP280;65640;43.154;25.658;2024-03-08T13:49:29;101181.81;;;5.81
76713;BMP280;65640;43.154;25.658;2024-03-08T13:51:54;101195.50;;;5.88
76713;BMP280;65640;43.154;25.658;2024-03-08T13:54:20;101189.88;;;5.91
76713;BMP280;65640;43.154;25.658;2024-03-08T13:56:46;101183.63;;;5.99